Little York, NJ (08834)

5:33 AM EDT on March 30, 2015 (GMT -0400)
schick reserve | | Change Station
CLOSE
Current Station
Personal Weather Station
Location: Milford, NJ
Elevation: 358 ft
Nearby Weather Stations

Elev 358 ft 40.61 °N, 75.07 °W | Updated 3 seconds ago

Snow
Snow
35.1 °F
Feels Like 35 °F
N
1.0
Wind Variable Wind from SW
Gusts 3.8 mph

Today
High -- | Low -- °F
--% Chance of Precip.
Yesterday
High -- | Low -- °F
Precip. -- in
6:47 AM 7:22 PM
Waxing Gibbous, 78% visible
Pressure 29.99 in
Visibility 10.0 miles
Clouds Few 3200 ft
Mostly Cloudy 5500 ft
Overcast 9000 ft
Windchill 35 °F
Dew Point 20 °F
Humidity 53%
Rainfall 0.00 in
Snow Depth Not available.
UV 0 out of 12
Pollen 8.40 out of 12
Air Quality Not available.
Flu Activity Not available.
METAR KDYL 300854Z AUTO 20010G15KT 160V230 10SM FEW032 BKN055 OVC090 02/M07 A2997 RMK AO2 SLP153 T00171067 58028

More Conditions Fewer Conditions

Pressure 29.99 in
Visibility 10.0 miles
Clouds Few 3200 ft
Mostly Cloudy 5500 ft
Overcast 9000 ft
Windchill 35 °F
Dew Point 20 °F
Humidity 53%
Rainfall 0.00 in
Snow Depth Not available.
UV 0 out of 12
Pollen 8.40 out of 12
Air Quality Not available.
Flu Activity Not available.
METAR KDYL 300854Z AUTO 20010G15KT 160V230 10SM FEW032 BKN055 OVC090 02/M07 A2997 RMK AO2 SLP153 T00171067 58028

More Conditions Fewer Conditions

Nowcast | as of 5:00 am EDT on March 30, 2015

Between now and 7 am some spotty light snow or flurries will be moving through the region. Temperatures remain above freezing and paved surfaces should remain wet.

×

10-Day Weather Forecast

Almanac

Astronomy

Mar. 30, 2015 Rise Set
Actual Time
Civil Twilight
Nautical Twilight
Astronomical Twilight
Moon
Length of Visible Light
Length of Day
Tomorrow will be .
, % of the Moon is Illuminated

Today's Extremes

State Highs State Lows

Community

WunderPhotos

Upload Photos

1,809,451 photos uploaded!

WunderBlogs® & News

Nearby

Air Quality

  Air Quality AQ Index Pollutant
Not available.

Snow Depth

Station Depth Elevation

Earthquake Activity

City Distance Mag. Time & Date
Minimum magnitude displayed is 2.5.

Coastal Water Temperatures

Place Temperature

Stations

Nearby Weather Stations

Station Location Temp. Windchill Dew Point Humidity Wind Precip. Elev Updated Type